WMT2400 LATI-LIBP
Flight info
| Callsign | WMT2400 |
|---|---|
| Flight time | 0h 53m |
| Altitude | 36000 |
| Route | DIRES DCT PAPIZ DCT ENOXA DCT PERAV DCT RUPAX/N0364F180 L612 ERPOG |
| Aircraft | A321/M-SDE3FGHIRWY/LB1 |
Departure
| Time | 2026-05-04 14:52 |
|---|---|
| Airport | Tirana International Airport Mother Teresa (LATI) |
Arrival
| Time | 2026-05-04 15:45 |
|---|---|
| Airport | Abruzzo Airport (LIBP) |
| Time | Latitude | Longitude | Altitude | Speed | Heading |
|---|---|---|---|---|---|
| 2026-05-04 14:17 | 41.41949 | 19.71519 | 123 ft | 0 kts | 264° |
| 2026-05-04 14:40 | 41.41950 | 19.71535 | 118 ft | 3 kts | 263° |
| 2026-05-04 14:41 | 41.41955 | 19.71564 | 123 ft | 4 kts | 229° |
| 2026-05-04 14:41 | 41.41975 | 19.71577 | 118 ft | 4 kts | 176° |
| 2026-05-04 14:41 | 41.41990 | 19.71575 | 123 ft | 0 kts | 174° |
| 2026-05-04 14:45 | 41.41984 | 19.71576 | 120 ft | 3 kts | 174° |
| 2026-05-04 14:45 | 41.41922 | 19.71584 | 121 ft | 12 kts | 174° |
| 2026-05-04 14:45 | 41.41841 | 19.71596 | 120 ft | 12 kts | 174° |
| 2026-05-04 14:45 | 41.41757 | 19.71607 | 121 ft | 12 kts | 174° |
| 2026-05-04 14:46 | 41.41672 | 19.71618 | 122 ft | 12 kts | 174° |
| 2026-05-04 14:46 | 41.41585 | 19.71629 | 123 ft | 13 kts | 174° |
| 2026-05-04 14:46 | 41.41496 | 19.71641 | 123 ft | 13 kts | 174° |
| 2026-05-04 14:46 | 41.41405 | 19.71653 | 125 ft | 13 kts | 174° |
| 2026-05-04 14:47 | 41.41312 | 19.71666 | 125 ft | 14 kts | 174° |
| 2026-05-04 14:47 | 41.41217 | 19.71679 | 128 ft | 14 kts | 174° |
| 2026-05-04 14:47 | 41.41120 | 19.71692 | 130 ft | 14 kts | 174° |
| 2026-05-04 14:47 | 41.41020 | 19.71706 | 127 ft | 15 kts | 174° |
| 2026-05-04 14:48 | 41.40916 | 19.71722 | 128 ft | 15 kts | 171° |
| 2026-05-04 14:48 | 41.40811 | 19.71749 | 132 ft | 16 kts | 170° |
| 2026-05-04 14:48 | 41.40701 | 19.71767 | 132 ft | 16 kts | 174° |
| 2026-05-04 14:48 | 41.40586 | 19.71782 | 132 ft | 17 kts | 174° |
| 2026-05-04 14:49 | 41.40474 | 19.71797 | 132 ft | 13 kts | 174° |
| 2026-05-04 14:49 | 41.40400 | 19.71818 | 132 ft | 11 kts | 154° |
| 2026-05-04 14:49 | 41.40334 | 19.71878 | 133 ft | 12 kts | 143° |
| 2026-05-04 14:49 | 41.40266 | 19.71945 | 133 ft | 12 kts | 139° |
| 2026-05-04 14:50 | 41.40240 | 19.72050 | 133 ft | 13 kts | 84° |
| 2026-05-04 14:50 | 41.40249 | 19.72166 | 133 ft | 9 kts | 84° |
| 2026-05-04 14:50 | 41.40257 | 19.72213 | 132 ft | 5 kts | 57° |
| 2026-05-04 14:50 | 41.40287 | 19.72216 | 132 ft | 5 kts | 356° |
| 2026-05-04 14:51 | 41.40352 | 19.72208 | 132 ft | 25 kts | 354° |
| 2026-05-04 14:51 | 41.40784 | 19.72149 | 134 ft | 97 kts | 354° |
| 2026-05-04 14:51 | 41.41667 | 19.72030 | 125 ft | 155 kts | 354° |
| 2026-05-04 14:51 | 41.42796 | 19.71897 | 638 ft | 160 kts | 352° |
| 2026-05-04 14:52 | 41.43903 | 19.71746 | 1373 ft | 159 kts | 351° |
| 2026-05-04 14:52 | 41.45020 | 19.71586 | 2005 ft | 168 kts | 353° |
| 2026-05-04 14:52 | 41.46240 | 19.71422 | 2445 ft | 182 kts | 353° |
| 2026-05-04 14:52 | 41.47547 | 19.71254 | 2867 ft | 196 kts | 354° |
| 2026-05-04 14:53 | 41.48941 | 19.71031 | 3253 ft | 209 kts | 347° |
| 2026-05-04 14:53 | 41.50249 | 19.70018 | 3412 ft | 233 kts | 312° |
| 2026-05-04 14:53 | 41.50931 | 19.67973 | 3579 ft | 258 kts | 274° |
| 2026-05-04 14:53 | 41.50500 | 19.65614 | 4057 ft | 271 kts | 237° |
| 2026-05-04 14:54 | 41.49203 | 19.63768 | 4732 ft | 277 kts | 220° |
| 2026-05-04 14:54 | 41.47671 | 19.62167 | 5450 ft | 282 kts | 216° |
| 2026-05-04 14:54 | 41.46047 | 19.60673 | 6167 ft | 286 kts | 213° |
| 2026-05-04 14:54 | 41.44408 | 19.59157 | 6905 ft | 288 kts | 215° |
| 2026-05-04 14:55 | 41.42791 | 19.57576 | 7630 ft | 290 kts | 217° |
| 2026-05-04 14:55 | 41.41167 | 19.55928 | 8230 ft | 297 kts | 218° |
| 2026-05-04 14:55 | 41.39545 | 19.54254 | 8905 ft | 300 kts | 218° |
| 2026-05-04 14:55 | 41.37891 | 19.52535 | 9599 ft | 304 kts | 218° |
| 2026-05-04 14:56 | 41.36216 | 19.50787 | 10243 ft | 309 kts | 219° |
| 2026-05-04 14:56 | 41.34464 | 19.48956 | 10435 ft | 331 kts | 219° |
| 2026-05-04 14:56 | 41.32592 | 19.47000 | 10573 ft | 353 kts | 219° |
| 2026-05-04 14:56 | 41.30626 | 19.44947 | 10990 ft | 362 kts | 219° |
| 2026-05-04 14:57 | 41.28635 | 19.42874 | 11595 ft | 366 kts | 219° |
| 2026-05-04 14:57 | 41.26614 | 19.40778 | 12192 ft | 370 kts | 219° |
| 2026-05-04 14:57 | 41.24570 | 19.38659 | 12766 ft | 375 kts | 220° |
| 2026-05-04 14:57 | 41.22501 | 19.36517 | 13360 ft | 379 kts | 220° |
| 2026-05-04 14:58 | 41.20408 | 19.34350 | 13936 ft | 384 kts | 220° |
| 2026-05-04 14:58 | 41.18290 | 19.32158 | 14470 ft | 388 kts | 220° |
| 2026-05-04 14:58 | 41.16156 | 19.29951 | 15037 ft | 391 kts | 220° |
| 2026-05-04 14:58 | 41.14003 | 19.27728 | 15607 ft | 394 kts | 220° |
| 2026-05-04 14:59 | 41.11831 | 19.25490 | 16171 ft | 397 kts | 220° |
| 2026-05-04 14:59 | 41.09642 | 19.23236 | 16751 ft | 400 kts | 220° |
| 2026-05-04 14:59 | 41.05302 | 19.18558 | 17848 ft | 403 kts | 229° |
| 2026-05-04 15:00 | 41.03407 | 19.15819 | 18384 ft | 405 kts | 231° |
| 2026-05-04 15:00 | 41.01512 | 19.13046 | 18873 ft | 408 kts | 231° |
| 2026-05-04 15:00 | 40.99599 | 19.10258 | 19364 ft | 410 kts | 231° |
| 2026-05-04 15:01 | 40.95757 | 19.04691 | 20368 ft | 414 kts | 231° |
| 2026-05-04 15:01 | 40.93812 | 19.01803 | 20878 ft | 415 kts | 236° |
| 2026-05-04 15:01 | 40.92295 | 18.98636 | 21358 ft | 411 kts | 248° |
| 2026-05-04 15:01 | 40.91318 | 18.95112 | 21824 ft | 407 kts | 261° |
| 2026-05-04 15:02 | 40.90932 | 18.91432 | 22286 ft | 403 kts | 273° |
| 2026-05-04 15:02 | 40.91136 | 18.87768 | 22747 ft | 399 kts | 285° |
| 2026-05-04 15:02 | 40.91872 | 18.84250 | 23182 ft | 397 kts | 292° |
| 2026-05-04 15:02 | 40.92740 | 18.80779 | 23625 ft | 399 kts | 292° |
| 2026-05-04 15:03 | 40.93603 | 18.77278 | 23988 ft | 401 kts | 291° |
| 2026-05-04 15:03 | 40.94466 | 18.73758 | 24346 ft | 403 kts | 291° |
| 2026-05-04 15:03 | 40.95333 | 18.70222 | 24729 ft | 404 kts | 291° |
| 2026-05-04 15:03 | 40.96201 | 18.66679 | 25113 ft | 406 kts | 291° |
| 2026-05-04 15:04 | 40.97070 | 18.63117 | 25493 ft | 406 kts | 291° |
| 2026-05-04 15:04 | 40.97939 | 18.59555 | 25856 ft | 408 kts | 291° |
| 2026-05-04 15:04 | 40.98812 | 18.55979 | 26224 ft | 409 kts | 291° |
| 2026-05-04 15:04 | 40.99688 | 18.52389 | 26592 ft | 410 kts | 291° |
| 2026-05-04 15:05 | 41.00564 | 18.48794 | 26955 ft | 411 kts | 291° |
| 2026-05-04 15:05 | 41.01445 | 18.45176 | 27310 ft | 413 kts | 291° |
| 2026-05-04 15:05 | 41.02327 | 18.41550 | 27642 ft | 414 kts | 291° |
| 2026-05-04 15:05 | 41.03199 | 18.37959 | 27981 ft | 415 kts | 291° |
| 2026-05-04 15:06 | 41.04080 | 18.34310 | 28323 ft | 416 kts | 291° |
| 2026-05-04 15:06 | 41.04963 | 18.30647 | 28657 ft | 418 kts | 291° |
| 2026-05-04 15:06 | 41.05848 | 18.26976 | 28982 ft | 419 kts | 290° |
| 2026-05-04 15:07 | 41.07620 | 18.19612 | 29635 ft | 421 kts | 291° |
| 2026-05-04 15:07 | 41.08512 | 18.15900 | 29962 ft | 423 kts | 291° |
| 2026-05-04 15:07 | 41.09408 | 18.12179 | 30270 ft | 424 kts | 290° |
| 2026-05-04 15:07 | 41.10302 | 18.08455 | 30579 ft | 424 kts | 290° |
| 2026-05-04 15:08 | 41.11193 | 18.04735 | 30946 ft | 422 kts | 290° |
| 2026-05-04 15:08 | 41.12076 | 18.01030 | 31303 ft | 421 kts | 290° |
| 2026-05-04 15:08 | 41.12955 | 17.97328 | 31662 ft | 420 kts | 290° |
| 2026-05-04 15:08 | 41.13830 | 17.93634 | 32022 ft | 419 kts | 290° |
| 2026-05-04 15:09 | 41.14702 | 17.89945 | 32363 ft | 418 kts | 290° |
| 2026-05-04 15:09 | 41.15573 | 17.86266 | 32721 ft | 417 kts | 290° |
| 2026-05-04 15:09 | 41.16441 | 17.82598 | 33073 ft | 416 kts | 290° |
| 2026-05-04 15:10 | 41.18167 | 17.75290 | 33740 ft | 414 kts | 290° |
| 2026-05-04 15:10 | 41.19025 | 17.71643 | 34044 ft | 414 kts | 289° |
| 2026-05-04 15:10 | 41.21174 | 17.64602 | 34584 ft | 410 kts | 302° |
| 2026-05-04 15:11 | 41.22644 | 17.61365 | 34839 ft | 409 kts | 302° |
| 2026-05-04 15:11 | 41.24111 | 17.58125 | 35091 ft | 409 kts | 302° |
| 2026-05-04 15:11 | 41.25567 | 17.54884 | 35342 ft | 409 kts | 302° |
| 2026-05-04 15:11 | 41.27022 | 17.51624 | 35568 ft | 409 kts | 302° |
| 2026-05-04 15:12 | 41.28455 | 17.48409 | 35806 ft | 410 kts | 302° |
| 2026-05-04 15:12 | 41.29928 | 17.45108 | 36040 ft | 410 kts | 302° |
| 2026-05-04 15:12 | 41.31366 | 17.41891 | 36109 ft | 410 kts | 302° |
| 2026-05-04 15:13 | 41.34276 | 17.35376 | 36113 ft | 409 kts | 301° |
| 2026-05-04 15:13 | 41.37178 | 17.28856 | 36117 ft | 409 kts | 301° |
| 2026-05-04 15:14 | 41.40085 | 17.22344 | 36117 ft | 409 kts | 301° |
| 2026-05-04 15:14 | 41.42988 | 17.15817 | 36119 ft | 409 kts | 301° |
| 2026-05-04 15:15 | 41.45887 | 17.09291 | 36120 ft | 409 kts | 301° |
| 2026-05-04 15:15 | 41.48772 | 17.02747 | 36118 ft | 410 kts | 301° |
| 2026-05-04 15:16 | 41.53147 | 16.92930 | 36125 ft | 410 kts | 305° |
| 2026-05-04 15:17 | 41.58115 | 16.83716 | 36130 ft | 409 kts | 306° |
| 2026-05-04 15:17 | 41.63117 | 16.74441 | 36126 ft | 410 kts | 306° |
| 2026-05-04 15:18 | 41.66441 | 16.68242 | 36116 ft | 410 kts | 306° |
| 2026-05-04 15:19 | 41.70899 | 16.59948 | 36114 ft | 410 kts | 306° |
| 2026-05-04 15:19 | 41.75873 | 16.50601 | 36119 ft | 411 kts | 306° |
| 2026-05-04 15:20 | 41.79177 | 16.44407 | 36121 ft | 411 kts | 306° |
| 2026-05-04 15:20 | 41.80862 | 16.41243 | 35879 ft | 411 kts | 306° |
| 2026-05-04 15:20 | 41.82498 | 16.38164 | 35475 ft | 411 kts | 305° |
| 2026-05-04 15:21 | 41.84174 | 16.35000 | 34899 ft | 410 kts | 305° |
| 2026-05-04 15:21 | 41.85822 | 16.31884 | 34398 ft | 409 kts | 306° |
| 2026-05-04 15:21 | 41.89094 | 16.25686 | 33422 ft | 403 kts | 306° |
| 2026-05-04 15:22 | 41.90690 | 16.22671 | 32982 ft | 399 kts | 306° |
| 2026-05-04 15:22 | 41.92290 | 16.19647 | 32535 ft | 395 kts | 305° |
| 2026-05-04 15:22 | 41.95441 | 16.13683 | 31645 ft | 388 kts | 305° |
| 2026-05-04 15:23 | 41.96995 | 16.10735 | 31210 ft | 385 kts | 305° |
| 2026-05-04 15:23 | 41.98534 | 16.07806 | 30777 ft | 382 kts | 305° |
| 2026-05-04 15:23 | 42.00058 | 16.04906 | 30339 ft | 379 kts | 305° |
| 2026-05-04 15:23 | 42.01572 | 16.02021 | 29887 ft | 375 kts | 305° |
| 2026-05-04 15:24 | 42.04540 | 15.96340 | 29055 ft | 367 kts | 304° |
| 2026-05-04 15:24 | 42.07458 | 15.90760 | 28276 ft | 362 kts | 305° |
| 2026-05-04 15:25 | 42.08905 | 15.88003 | 27893 ft | 359 kts | 305° |
| 2026-05-04 15:25 | 42.10338 | 15.85270 | 27500 ft | 356 kts | 305° |
| 2026-05-04 15:25 | 42.11756 | 15.82556 | 27120 ft | 353 kts | 304° |
| 2026-05-04 15:26 | 42.14549 | 15.77197 | 26389 ft | 346 kts | 304° |
| 2026-05-04 15:26 | 42.15925 | 15.74547 | 26024 ft | 343 kts | 304° |
| 2026-05-04 15:26 | 42.18635 | 15.69313 | 25323 ft | 338 kts | 304° |
| 2026-05-04 15:27 | 42.19982 | 15.66721 | 24960 ft | 337 kts | 304° |
| 2026-05-04 15:27 | 42.22633 | 15.61603 | 24237 ft | 332 kts | 304° |
| 2026-05-04 15:28 | 42.25274 | 15.56496 | 23481 ft | 327 kts | 304° |
| 2026-05-04 15:28 | 42.26568 | 15.53978 | 23102 ft | 326 kts | 304° |
| 2026-05-04 15:28 | 42.29156 | 15.48966 | 22362 ft | 325 kts | 304° |
| 2026-05-04 15:29 | 42.30505 | 15.46527 | 21959 ft | 324 kts | 311° |
| 2026-05-04 15:30 | 42.36458 | 15.37539 | 20365 ft | 321 kts | 311° |
| 2026-05-04 15:30 | 42.40900 | 15.30814 | 19166 ft | 320 kts | 311° |
| 2026-05-04 15:31 | 42.43838 | 15.26330 | 18342 ft | 320 kts | 309° |
| 2026-05-04 15:31 | 42.45313 | 15.24077 | 17899 ft | 319 kts | 309° |
| 2026-05-04 15:32 | 42.47653 | 15.16007 | 16710 ft | 308 kts | 269° |
| 2026-05-04 15:32 | 42.47459 | 15.10249 | 15938 ft | 305 kts | 266° |
| 2026-05-04 15:33 | 42.47238 | 15.04528 | 15160 ft | 303 kts | 266° |
| 2026-05-04 15:34 | 42.46908 | 14.95998 | 14024 ft | 301 kts | 265° |
| 2026-05-04 15:34 | 42.46794 | 14.93168 | 13622 ft | 301 kts | 265° |
| 2026-05-04 15:34 | 42.46570 | 14.87553 | 12856 ft | 297 kts | 265° |
| 2026-05-04 15:35 | 42.46343 | 14.82002 | 12118 ft | 294 kts | 265° |
| 2026-05-04 15:35 | 42.46226 | 14.79255 | 11761 ft | 292 kts | 265° |
| 2026-05-04 15:35 | 42.46113 | 14.76518 | 11392 ft | 290 kts | 265° |
| 2026-05-04 15:36 | 42.45889 | 14.71102 | 10704 ft | 286 kts | 266° |
| 2026-05-04 15:36 | 42.45779 | 14.68420 | 10365 ft | 285 kts | 266° |
| 2026-05-04 15:36 | 42.45670 | 14.65746 | 10123 ft | 285 kts | 266° |
| 2026-05-04 15:37 | 42.45557 | 14.63065 | 10033 ft | 286 kts | 266° |
| 2026-05-04 15:37 | 42.45442 | 14.60346 | 9622 ft | 292 kts | 265° |
| 2026-05-04 15:37 | 42.45326 | 14.57634 | 9327 ft | 286 kts | 266° |
| 2026-05-04 15:37 | 42.45262 | 14.54946 | 8921 ft | 286 kts | 275° |
| 2026-05-04 15:38 | 42.45933 | 14.52469 | 8417 ft | 283 kts | 308° |
| 2026-05-04 15:38 | 42.47492 | 14.50892 | 7888 ft | 284 kts | 341° |
| 2026-05-04 15:38 | 42.49437 | 14.50486 | 7326 ft | 285 kts | 356° |
| 2026-05-04 15:38 | 42.51417 | 14.50271 | 6828 ft | 282 kts | 349° |
| 2026-05-04 15:39 | 42.53312 | 14.49645 | 6316 ft | 279 kts | 339° |
| 2026-05-04 15:39 | 42.55079 | 14.48589 | 5794 ft | 276 kts | 331° |
| 2026-05-04 15:39 | 42.58310 | 14.45770 | 4693 ft | 275 kts | 321° |
| 2026-05-04 15:40 | 42.59518 | 14.43811 | 4206 ft | 271 kts | 293° |
| 2026-05-04 15:40 | 42.59894 | 14.41351 | 3733 ft | 266 kts | 265° |
| 2026-05-04 15:40 | 42.59399 | 14.38978 | 3276 ft | 262 kts | 240° |
| 2026-05-04 15:40 | 42.58521 | 14.36824 | 2982 ft | 254 kts | 239° |
| 2026-05-04 15:41 | 42.57693 | 14.34800 | 2922 ft | 239 kts | 240° |
| 2026-05-04 15:41 | 42.56832 | 14.32886 | 2834 ft | 236 kts | 230° |
| 2026-05-04 15:41 | 42.55672 | 14.31374 | 2759 ft | 225 kts | 217° |
| 2026-05-04 15:41 | 42.54450 | 14.30077 | 2644 ft | 219 kts | 216° |
| 2026-05-04 15:42 | 42.53269 | 14.28819 | 2374 ft | 214 kts | 216° |
| 2026-05-04 15:42 | 42.52088 | 14.27587 | 2047 ft | 213 kts | 214° |
| 2026-05-04 15:42 | 42.50905 | 14.26363 | 1802 ft | 212 kts | 215° |
| 2026-05-04 15:42 | 42.49772 | 14.25190 | 1516 ft | 197 kts | 214° |
| 2026-05-04 15:43 | 42.48728 | 14.24106 | 1264 ft | 179 kts | 215° |
| 2026-05-04 15:43 | 42.47789 | 14.23130 | 1040 ft | 164 kts | 214° |
| 2026-05-04 15:43 | 42.46898 | 14.22215 | 832 ft | 157 kts | 214° |
| 2026-05-04 15:43 | 42.46050 | 14.21333 | 623 ft | 155 kts | 217° |
| 2026-05-04 15:44 | 42.45191 | 14.20450 | 385 ft | 153 kts | 217° |
| 2026-05-04 15:44 | 42.44343 | 14.19563 | 208 ft | 155 kts | 218° |
| 2026-05-04 15:44 | 42.43493 | 14.18680 | 48 ft | 148 kts | 217° |
| 2026-05-04 15:44 | 42.42812 | 14.17973 | 46 ft | 76 kts | 217° |
| 2026-05-04 15:45 | 42.42514 | 14.17662 | 47 ft | 35 kts | 218° |
| 2026-05-04 15:45 | 42.42372 | 14.17514 | 45 ft | 16 kts | 218° |
| 2026-05-04 15:45 | 42.42297 | 14.17485 | 44 ft | 8 kts | 159° |
| 2026-05-04 15:45 | 42.42270 | 14.17553 | 45 ft | 9 kts | 95° |
| 2026-05-04 15:46 | 42.42275 | 14.17643 | 45 ft | 10 kts | 84° |
| 2026-05-04 15:46 | 42.42302 | 14.17730 | 44 ft | 11 kts | 46° |
| 2026-05-04 15:46 | 42.42364 | 14.17795 | 44 ft | 12 kts | 37° |
| 2026-05-04 15:46 | 42.42433 | 14.17865 | 45 ft | 13 kts | 36° |
| 2026-05-04 15:47 | 42.42509 | 14.17942 | 44 ft | 14 kts | 38° |
| 2026-05-04 15:47 | 42.42590 | 14.18029 | 44 ft | 15 kts | 38° |
| 2026-05-04 15:47 | 42.42679 | 14.18121 | 45 ft | 17 kts | 37° |
| 2026-05-04 15:47 | 42.42774 | 14.18220 | 45 ft | 18 kts | 37° |
| 2026-05-04 15:48 | 42.42875 | 14.18325 | 43 ft | 19 kts | 37° |
| 2026-05-04 15:48 | 42.42971 | 14.18423 | 45 ft | 12 kts | 37° |
| 2026-05-04 15:48 | 42.43026 | 14.18596 | 45 ft | 9 kts | 81° |
| 2026-05-04 15:49 | 42.43060 | 14.18658 | 45 ft | 9 kts | 39° |
| 2026-05-04 15:49 | 42.43090 | 14.18694 | 44 ft | 3 kts | 63° |
| 2026-05-04 15:49 | 42.43086 | 14.18713 | 45 ft | 2 kts | 114° |
| 2026-05-04 15:49 | 42.43074 | 14.18738 | 43 ft | 4 kts | 127° |
| 2026-05-04 15:50 | 42.43065 | 14.18755 | 45 ft | 1 kts | 127° |
| 2026-05-04 15:50 | 42.43062 | 14.18759 | 45 ft | 0 kts | 127° |